createdAt,value
2017-08-27T11:19:20.519Z,17.63
2017-08-27T11:21:48.118Z,18.43
2017-08-27T11:24:16.088Z,14.43
2017-08-27T11:26:43.843Z,14.23
2017-08-27T11:29:11.433Z,16.43
2017-08-27T11:31:39.799Z,6.77
2017-08-27T11:34:08.305Z,9.30
2017-08-27T11:36:35.903Z,8.47
2017-08-27T11:39:03.498Z,8.30
2017-08-27T11:41:32.142Z,6.40
2017-08-27T11:43:59.733Z,5.67
2017-08-27T11:46:28.167Z,5.80
2017-08-27T11:48:55.758Z,6.83
2017-08-27T11:51:24.222Z,7.13
2017-08-27T11:53:51.854Z,14.50
2017-08-27T11:56:19.452Z,11.90
2017-08-27T12:00:13.801Z,6.40
2017-08-27T12:02:41.501Z,7.93
2017-08-27T12:05:10.019Z,11.50
2017-08-27T12:07:37.616Z,30.50
2017-08-27T12:10:05.248Z,13.07
2017-08-27T12:12:32.854Z,9.50
2017-08-27T12:15:00.581Z,6.97
2017-08-27T12:17:28.298Z,11.23
2017-08-27T12:19:56.790Z,12.63
2017-08-27T12:22:25.262Z,6.10
2017-08-27T12:24:52.858Z,5.70
2017-08-27T12:27:20.559Z,6.77
2017-08-27T12:29:48.250Z,4.17
2017-08-27T12:32:15.897Z,4.13
2017-08-27T12:34:43.485Z,7.20
2017-08-27T12:37:11.963Z,11.97
2017-08-27T12:39:39.621Z,11.60
2017-08-27T12:42:07.282Z,9.70
2017-08-27T12:44:35.667Z,8.53
2017-08-27T12:47:03.337Z,4.40
2017-08-27T12:49:30.927Z,3.50
2017-08-27T12:51:58.515Z,7.13
2017-08-27T12:54:26.215Z,4.67
2017-08-27T12:56:54.567Z,5.20
2017-08-27T12:59:22.153Z,8.03
2017-08-27T13:01:54.798Z,4.73
2017-08-27T13:04:23.330Z,7.03
2017-08-27T13:06:50.982Z,4.23
2017-08-27T13:09:18.588Z,4.30
2017-08-27T13:11:46.251Z,13.70
2017-08-27T13:14:13.864Z,4.43
2017-08-27T13:16:41.550Z,7.50
2017-08-27T13:19:10.026Z,7.27
2017-08-27T13:21:37.674Z,7.87
2017-08-27T13:24:05.356Z,9.43
2017-08-27T13:26:32.999Z,10.47
2017-08-27T13:29:00.595Z,7.70
2017-08-27T13:31:28.226Z,7.27
2017-08-27T13:33:55.855Z,6.23
2017-08-27T13:36:23.450Z,6.27
2017-08-27T13:38:52.650Z,5.70
2017-08-27T13:41:21.043Z,5.50
2017-08-27T13:43:48.636Z,10.93
2017-08-27T13:46:16.258Z,7.53
2017-08-27T13:48:44.909Z,6.10
2017-08-27T13:51:12.506Z,13.53
2017-08-27T13:53:41.014Z,5.97
2017-08-27T13:56:09.441Z,3.70
2017-08-27T13:58:37.946Z,4.80
2017-08-27T14:01:06.482Z,6.70
2017-08-27T14:03:35.029Z,4.20
2017-08-27T14:06:03.455Z,9.67
2017-08-27T14:08:31.922Z,3.77
2017-08-27T14:10:59.693Z,11.70
2017-08-27T14:13:27.285Z,7.70
2017-08-27T14:15:54.966Z,4.33
2017-08-27T14:18:22.626Z,4.90
2017-08-27T14:20:51.034Z,5.13
2017-08-27T14:23:19.472Z,3.50
2017-08-27T14:25:47.060Z,4.53
2017-08-27T14:28:14.681Z,4.97
2017-08-27T14:30:42.374Z,8.87
2017-08-27T14:33:10.747Z,8.53
2017-08-27T14:35:39.159Z,8.63
2017-08-27T14:38:07.643Z,7.33
2017-08-27T14:40:35.234Z,6.70
2017-08-27T14:43:02.842Z,6.40
2017-08-27T14:45:30.502Z,6.10
2017-08-27T14:47:59.711Z,6.53
2017-08-27T14:50:28.869Z,9.53
2017-08-27T14:52:57.235Z,7.90
2017-08-27T14:55:25.766Z,10.60
2017-08-27T14:57:53.362Z,9.63
2017-08-27T15:00:21.903Z,8.27
2017-08-27T15:02:50.498Z,5.10
2017-08-27T15:05:19.039Z,6.87
2017-08-27T15:07:46.623Z,6.27
2017-08-27T15:10:14.986Z,4.40
2017-08-27T15:12:43.513Z,3.70
2017-08-27T15:15:11.163Z,5.07
2017-08-27T15:17:38.828Z,6.00
2017-08-27T15:20:07.312Z,4.40
2017-08-27T15:22:35.746Z,5.00
2017-08-27T15:25:03.689Z,4.63
2017-08-27T15:27:32.145Z,4.10
2017-08-27T15:30:00.625Z,3.13
2017-08-27T15:32:29.019Z,9.03
2017-08-27T15:34:57.682Z,6.23
2017-08-27T15:37:26.174Z,3.97
2017-08-27T15:39:54.670Z,5.23
2017-08-27T15:42:22.249Z,3.90
2017-08-27T15:44:49.849Z,9.40
2017-08-27T15:47:18.358Z,4.53
2017-08-27T15:49:45.943Z,3.57
2017-08-27T15:52:14.403Z,4.93
2017-08-27T15:54:42.066Z,4.77
2017-08-27T15:57:10.557Z,7.80
2017-08-27T15:59:38.934Z,4.40
2017-08-27T16:02:08.065Z,2.97
2017-08-27T16:04:35.693Z,5.63
2017-08-27T16:07:04.168Z,6.30
2017-08-27T16:09:31.759Z,3.23
2017-08-27T16:12:00.311Z,3.37
2017-08-27T16:14:28.831Z,3.40
2017-08-27T16:16:56.565Z,4.00
2017-08-27T16:19:25.808Z,2.90
2017-08-27T16:21:53.399Z,3.63
2017-08-27T16:24:21.800Z,4.63
2017-08-27T16:26:50.238Z,5.63
2017-08-27T16:29:18.810Z,3.23
2017-08-27T16:31:47.174Z,2.90
2017-08-27T16:34:14.762Z,2.93
2017-08-27T16:36:43.163Z,3.00
2017-08-27T16:39:11.677Z,3.60
2017-08-27T16:41:40.223Z,6.73
2017-08-27T16:44:08.770Z,3.13
2017-08-27T16:46:37.200Z,3.40
2017-08-27T16:49:04.830Z,2.83
2017-08-27T16:51:32.415Z,3.00
2017-08-27T16:54:00.011Z,4.43
2017-08-27T16:56:28.374Z,2.57
2017-08-27T16:58:56.898Z,6.57
2017-08-27T17:01:24.616Z,5.40
2017-08-27T17:03:52.211Z,3.90
2017-08-27T17:06:20.678Z,6.83
2017-08-27T17:08:48.267Z,6.30
2017-08-27T17:11:16.868Z,3.97
2017-08-27T17:13:45.707Z,3.17
2017-08-27T17:16:13.308Z,4.60
2017-08-27T17:18:41.743Z,4.87
2017-08-27T17:21:10.242Z,11.93
2017-08-27T17:23:37.892Z,4.50
2017-08-27T17:26:05.742Z,3.80
2017-08-27T17:28:34.319Z,4.40
2017-08-27T17:31:01.948Z,2.20
2017-08-27T17:33:29.547Z,4.30
2017-08-27T17:35:57.139Z,5.47
2017-08-27T17:38:24.780Z,11.80
2017-08-27T17:40:52.388Z,10.63
2017-08-27T17:43:19.993Z,8.30
2017-08-27T17:45:47.592Z,8.73
2017-08-27T17:48:15.226Z,24.47
2017-08-27T17:50:42.826Z,24.20
2017-08-27T17:53:11.418Z,61.50
2017-08-27T18:09:58.717Z,15.30
2017-08-27T18:12:27.315Z,9.40
2017-08-27T18:14:54.906Z,9.60
2017-08-27T18:17:22.502Z,9.03
2017-08-27T18:19:50.162Z,12.97
2017-08-27T18:22:17.800Z,14.10
2017-08-27T18:24:45.399Z,9.67
2017-08-27T18:27:13.105Z,15.30
2017-08-27T18:29:40.980Z,14.47
2017-08-27T18:32:08.595Z,8.80
2017-08-27T18:34:36.236Z,10.70
2017-08-27T18:37:03.898Z,10.93
2017-08-27T18:39:31.622Z,11.10
2017-08-27T18:41:59.223Z,8.87
2017-08-27T18:44:26.824Z,7.17
2017-08-27T18:46:54.446Z,8.63
2017-08-27T18:49:22.106Z,4.87
2017-08-27T18:51:49.775Z,7.13
2017-08-27T18:54:17.437Z,4.50
2017-08-27T18:56:45.031Z,5.43
2017-08-27T18:59:12.754Z,3.00
2017-08-27T19:01:41.120Z,10.80
2017-08-27T19:04:08.719Z,8.20
2017-08-27T19:06:36.328Z,16.63
2017-08-27T19:09:04.654Z,6.33
2017-08-27T19:11:32.351Z,3.30
2017-08-27T19:13:59.963Z,4.40
2017-08-27T19:16:28.324Z,9.97
2017-08-27T19:18:55.922Z,3.23
2017-08-27T19:21:24.238Z,6.73
2017-08-27T19:23:52.761Z,20.33
2017-08-27T19:26:20.427Z,8.03
2017-08-27T19:28:48.036Z,9.07
2017-08-27T19:31:16.465Z,7.63
2017-08-27T19:33:45.054Z,9.33
2017-08-27T19:36:12.723Z,11.13
2017-08-27T19:38:40.322Z,10.17
2017-08-27T19:41:08.067Z,8.07
2017-08-27T19:43:35.754Z,7.40
2017-08-27T19:46:03.416Z,5.23
2017-08-27T19:48:31.018Z,5.57
2017-08-27T19:50:58.699Z,6.30
2017-08-27T19:53:26.292Z,6.93
2017-08-27T19:55:53.934Z,16.87
2017-08-27T19:58:21.589Z,5.80
2017-08-27T20:00:49.243Z,7.47
2017-08-27T20:03:16.880Z,7.50
2017-08-27T20:05:44.573Z,6.20
2017-08-27T20:08:13.163Z,4.70
2017-08-27T20:10:40.758Z,5.67
2017-08-27T20:13:08.530Z,8.20
2017-08-27T20:15:36.933Z,8.10
2017-08-27T20:18:05.418Z,12.43
2017-08-27T20:20:33.116Z,9.00
2017-08-27T20:23:00.779Z,11.93
2017-08-27T20:25:28.377Z,10.93
2017-08-27T20:27:55.976Z,8.33
2017-08-27T20:30:24.528Z,9.70
2017-08-27T20:32:52.125Z,8.60
2017-08-27T20:35:19.809Z,8.93
2017-08-27T20:37:47.412Z,10.00
2017-08-27T20:40:15.030Z,6.87
2017-08-27T20:42:42.628Z,10.03
2017-08-27T20:45:10.274Z,9.70
2017-08-27T20:47:37.962Z,11.83
2017-08-27T20:50:06.401Z,6.97
2017-08-27T20:52:34.064Z,7.30
2017-08-27T20:55:02.438Z,7.70
2017-08-27T20:57:30.051Z,12.07
2017-08-27T20:59:58.604Z,10.30
2017-08-27T21:02:27.184Z,17.43
2017-08-27T21:04:54.833Z,10.10
2017-08-27T21:07:22.450Z,11.70
2017-08-27T21:09:50.048Z,9.83
2017-08-27T21:12:17.677Z,14.13
2017-08-27T21:14:45.280Z,11.33
2017-08-27T21:17:12.940Z,11.83
2017-08-27T21:19:40.606Z,9.73
2017-08-27T21:22:09.030Z,11.80
2017-08-27T21:24:36.676Z,10.90
2017-08-27T21:27:04.309Z,11.73
2017-08-27T21:29:31.976Z,8.40
2017-08-27T21:31:59.669Z,12.70
2017-08-27T21:34:27.273Z,11.33
2017-08-27T21:36:54.965Z,12.90
2017-08-27T21:39:22.562Z,10.30
2017-08-27T21:41:50.160Z,13.73
2017-08-27T21:44:17.751Z,8.60
2017-08-27T21:46:45.412Z,13.40
2017-08-27T21:49:13.018Z,10.57
2017-08-27T21:51:40.619Z,10.63
2017-08-27T21:54:08.228Z,8.03
2017-08-27T21:56:35.904Z,6.80
2017-08-27T21:59:03.629Z,13.00
2017-08-27T22:01:31.284Z,11.87
2017-08-27T22:03:59.782Z,10.43
2017-08-27T22:06:27.372Z,6.87
2017-08-27T22:08:54.967Z,10.03
2017-08-27T22:11:22.550Z,8.60
2017-08-27T22:13:50.152Z,11.43
2017-08-27T22:16:17.774Z,8.27
2017-08-27T22:18:45.437Z,11.27
2017-08-27T22:21:13.098Z,6.50
2017-08-27T22:23:40.688Z,5.13
2017-08-27T22:26:08.326Z,6.10
2017-08-27T22:28:35.987Z,9.37
2017-08-27T22:31:03.570Z,7.53
2017-08-27T22:33:31.210Z,10.50
2017-08-27T22:35:58.807Z,6.63
2017-08-27T22:38:26.402Z,12.50
2017-08-27T22:40:53.986Z,6.73
2017-08-27T22:43:21.703Z,6.23
2017-08-27T22:45:49.323Z,8.53
2017-08-27T22:48:17.702Z,15.50
2017-08-27T22:50:45.297Z,22.53
2017-08-27T22:53:13.026Z,30.10
2017-08-27T22:55:41.582Z,31.47
2017-08-27T22:58:09.240Z,28.57
2017-08-27T23:00:36.858Z,30.60
2017-08-27T23:03:04.499Z,35.20
2017-08-27T23:05:33.078Z,19.20
2017-08-27T23:08:01.458Z,29.97
2017-08-27T23:10:29.895Z,35.07
2017-08-27T23:12:57.491Z,21.87
2017-08-27T23:15:25.082Z,15.03
2017-08-27T23:17:52.723Z,17.57
2017-08-27T23:20:20.360Z,14.97
2017-08-27T23:22:48.721Z,17.93
2017-08-27T23:25:16.305Z,15.27
2017-08-27T23:27:43.893Z,12.43
2017-08-27T23:30:11.550Z,11.47
2017-08-27T23:32:39.967Z,19.07
2017-08-27T23:35:07.553Z,12.23
2017-08-27T23:37:35.134Z,23.87
2017-08-27T23:40:03.551Z,15.00
2017-08-27T23:42:31.147Z,7.83
2017-08-27T23:44:58.763Z,9.00
2017-08-27T23:47:27.119Z,11.93
2017-08-27T23:49:54.808Z,14.03
2017-08-27T23:52:23.188Z,12.13
2017-08-27T23:54:50.774Z,9.90
2017-08-27T23:57:18.410Z,8.70
2017-08-27T23:59:46.008Z,12.13
